createdAt,value
2022-10-04T00:01:44.129Z,10.13
2022-10-04T00:04:27.310Z,8.73
2022-10-04T00:07:01.589Z,9.07
2022-10-04T00:09:54.708Z,9.97
2022-10-04T00:12:31.020Z,10.03
2022-10-04T00:15:05.378Z,10.53
2022-10-04T00:17:35.656Z,7.77
2022-10-04T00:20:24.867Z,9.87
2022-10-04T00:23:29.412Z,8.77
2022-10-04T00:26:01.726Z,14.43
2022-10-04T00:28:30.714Z,10.60
2022-10-04T00:31:14.333Z,10.83
2022-10-04T00:33:42.473Z,11.20
2022-10-04T00:36:24.224Z,12.07
2022-10-04T00:39:08.922Z,7.53
2022-10-04T00:41:39.088Z,9.43
2022-10-04T00:44:10.702Z,9.77
2022-10-04T00:46:41.376Z,8.17
2022-10-04T00:49:11.648Z,13.23
2022-10-04T00:51:58.549Z,10.23
2022-10-04T00:54:34.437Z,10.10
2022-10-04T00:57:32.257Z,10.47
2022-10-04T01:00:18.374Z,10.27
2022-10-04T01:02:53.017Z,10.97
2022-10-04T01:05:23.297Z,13.13
2022-10-04T01:08:02.662Z,12.80
2022-10-04T01:10:33.294Z,13.80
2022-10-04T01:13:06.699Z,12.07
2022-10-04T01:16:01.258Z,10.60
2022-10-04T01:18:31.619Z,14.87
2022-10-04T01:21:07.219Z,12.47
2022-10-04T01:23:50.736Z,11.27
2022-10-04T01:26:30.086Z,9.73
2022-10-04T01:29:19.944Z,9.90
2022-10-04T01:31:49.207Z,7.93
2022-10-04T01:34:24.344Z,11.57
2022-10-04T01:36:54.267Z,9.37
2022-10-04T01:39:24.145Z,10.47
2022-10-04T01:42:11.819Z,12.70
2022-10-04T01:44:51.796Z,11.37
2022-10-04T01:47:31.126Z,11.60
2022-10-04T01:50:02.721Z,9.93
2022-10-04T01:52:41.699Z,9.97
2022-10-04T01:55:14.597Z,12.63
2022-10-04T01:57:52.912Z,9.43
2022-10-04T02:00:22.316Z,11.93
2022-10-04T02:02:55.086Z,9.63
2022-10-04T02:05:30.968Z,9.30
2022-10-04T02:08:04.110Z,14.13
2022-10-04T02:10:34.059Z,12.50
2022-10-04T02:13:01.341Z,11.63
2022-10-04T02:15:29.379Z,10.37
2022-10-04T02:17:57.748Z,11.77
2022-10-04T02:20:26.610Z,8.37
2022-10-04T02:22:59.356Z,13.97
2022-10-04T02:25:26.915Z,11.10
2022-10-04T02:27:54.394Z,11.30
2022-10-04T02:30:21.837Z,13.17
2022-10-04T02:32:57.986Z,12.03
2022-10-04T02:35:35.897Z,15.53
2022-10-04T02:38:23.659Z,14.23
2022-10-04T02:40:57.122Z,11.43
2022-10-04T02:43:33.024Z,9.70
2022-10-04T02:46:17.705Z,8.43
2022-10-04T02:48:48.518Z,13.07
2022-10-04T02:51:20.700Z,8.33
2022-10-04T02:54:02.297Z,9.83
2022-10-04T02:56:31.075Z,11.30
2022-10-04T02:59:02.277Z,12.70
2022-10-04T03:01:59.294Z,10.30
2022-10-04T03:04:30.113Z,11.43
2022-10-04T03:07:00.010Z,11.90
2022-10-04T03:09:29.887Z,10.03
2022-10-04T03:11:57.529Z,11.37
2022-10-04T03:14:27.520Z,10.27
2022-10-04T03:16:58.960Z,10.93
2022-10-04T03:19:27.883Z,9.23
2022-10-04T03:22:02.597Z,10.43
2022-10-04T03:24:33.004Z,10.80
2022-10-04T03:27:02.967Z,11.17
2022-10-04T03:29:32.543Z,13.87
2022-10-04T03:32:03.068Z,9.07
2022-10-04T03:34:38.896Z,11.70
2022-10-04T03:37:14.679Z,11.33
2022-10-04T03:39:45.475Z,9.57
2022-10-04T03:42:15.921Z,10.03
2022-10-04T03:44:45.536Z,11.43
2022-10-04T03:47:18.010Z,10.83
2022-10-04T03:49:50.551Z,14.07
2022-10-04T03:52:25.442Z,13.43
2022-10-04T03:54:54.666Z,11.30
2022-10-04T03:57:22.748Z,11.90
2022-10-04T03:59:50.899Z,10.90
2022-10-04T04:02:26.597Z,9.57
2022-10-04T04:05:05.742Z,10.87
2022-10-04T04:07:40.187Z,11.27
2022-10-04T04:10:23.003Z,12.47
2022-10-04T04:13:18.394Z,11.10
2022-10-04T04:15:46.167Z,16.23
2022-10-04T04:18:28.947Z,12.60
2022-10-04T04:20:59.358Z,14.77
2022-10-04T04:23:32.918Z,12.77
2022-10-04T04:26:23.531Z,13.90
2022-10-04T04:29:15.728Z,12.23
2022-10-04T04:32:00.596Z,14.83
2022-10-04T04:34:30.981Z,11.43
2022-10-04T04:37:03.315Z,13.03
2022-10-04T04:39:36.988Z,13.23
2022-10-04T04:42:06.254Z,11.00
2022-10-04T04:44:33.917Z,9.90
2022-10-04T04:47:00.984Z,11.37
2022-10-04T04:49:30.107Z,16.60
2022-10-04T04:51:58.084Z,10.97
2022-10-04T04:54:27.427Z,12.57
2022-10-04T04:56:55.441Z,13.27
2022-10-04T04:59:24.080Z,11.77
2022-10-04T05:01:50.952Z,12.07
2022-10-04T05:04:19.190Z,11.93
2022-10-04T05:07:04.298Z,11.30
2022-10-04T05:09:37.149Z,11.17
2022-10-04T05:12:27.504Z,13.83
2022-10-04T05:14:56.819Z,13.27
2022-10-04T05:17:26.503Z,12.40
2022-10-04T05:19:57.683Z,13.33
2022-10-04T05:22:26.116Z,15.80
2022-10-04T05:24:56.510Z,13.27
2022-10-04T05:27:40.716Z,12.33
2022-10-04T05:30:27.280Z,11.73
2022-10-04T05:33:18.003Z,13.00
2022-10-04T05:36:09.805Z,15.03
2022-10-04T05:38:51.271Z,11.97
2022-10-04T05:41:37.022Z,12.20
2022-10-04T05:44:26.061Z,13.87
2022-10-04T05:47:06.124Z,12.93
2022-10-04T05:49:45.074Z,13.17
2022-10-04T05:52:27.803Z,19.20
2022-10-04T05:55:16.161Z,13.83
2022-10-04T05:57:57.679Z,10.90
2022-10-04T06:01:03.598Z,12.43
2022-10-04T06:03:48.209Z,11.63
2022-10-04T06:06:27.021Z,10.90
2022-10-04T06:09:13.927Z,11.43
2022-10-04T06:11:55.707Z,9.77
2022-10-04T06:14:56.392Z,14.13
2022-10-04T06:17:27.368Z,15.03
2022-10-04T06:20:15.520Z,13.43
2022-10-04T06:22:47.571Z,13.37
2022-10-04T06:25:24.625Z,13.70
2022-10-04T06:28:00.089Z,18.00
2022-10-04T06:30:29.264Z,14.17
2022-10-04T06:33:14.136Z,16.20
2022-10-04T06:36:16.023Z,14.20
2022-10-04T06:39:04.464Z,13.33
2022-10-04T06:41:59.619Z,15.73
2022-10-04T06:44:42.237Z,15.40
2022-10-04T06:47:32.322Z,15.23
2022-10-04T06:50:26.404Z,15.07
2022-10-04T06:53:11.727Z,17.20
2022-10-04T06:56:05.682Z,12.90
2022-10-04T06:58:33.175Z,13.07
2022-10-04T07:01:24.244Z,15.13
2022-10-04T07:04:24.574Z,14.23
2022-10-04T07:07:23.679Z,16.57
2022-10-04T07:10:12.404Z,9.37
2022-10-04T07:12:43.275Z,10.97
2022-10-04T07:15:21.525Z,10.87
2022-10-04T07:17:50.321Z,12.10
2022-10-04T07:20:25.419Z,14.77
2022-10-04T07:22:58.126Z,10.13
2022-10-04T07:25:30.677Z,11.97
2022-10-04T07:28:28.225Z,12.93
2022-10-04T07:31:06.321Z,12.07
2022-10-04T07:33:41.954Z,14.57
2022-10-04T07:36:17.667Z,9.70
2022-10-04T07:38:55.789Z,10.67
2022-10-04T07:41:36.527Z,18.13
2022-10-04T07:44:20.723Z,9.83
2022-10-04T07:47:19.343Z,7.60
2022-10-04T07:49:49.394Z,13.50
2022-10-04T07:52:30.887Z,9.67
2022-10-04T07:55:19.276Z,9.70
2022-10-04T07:58:23.391Z,10.57
2022-10-04T08:00:57.631Z,11.47
2022-10-04T08:04:02.088Z,8.97
2022-10-04T08:06:36.820Z,9.80
2022-10-04T08:09:31.362Z,9.90
2022-10-04T08:12:17.583Z,14.43
2022-10-04T08:15:14.717Z,6.50
2022-10-04T08:18:18.344Z,7.20
2022-10-04T08:20:56.551Z,8.87
2022-10-04T08:23:38.534Z,9.17
2022-10-04T08:26:26.345Z,10.60
2022-10-04T08:29:23.908Z,10.33
2022-10-04T08:32:23.189Z,9.30
2022-10-04T08:35:02.667Z,6.20
2022-10-04T08:38:13.366Z,7.67
2022-10-04T08:40:58.707Z,10.63
2022-10-04T08:43:40.801Z,6.73
2022-10-04T08:46:46.051Z,8.37
2022-10-04T08:49:22.296Z,9.77
2022-10-04T08:52:19.639Z,9.60
2022-10-04T08:55:12.133Z,7.53
2022-10-04T08:57:50.054Z,8.90
2022-10-04T09:00:48.889Z,7.47
2022-10-04T09:03:37.128Z,9.57
2022-10-04T09:06:31.095Z,10.27
2022-10-04T09:09:34.226Z,8.50
2022-10-04T09:12:17.092Z,8.70
2022-10-04T09:15:12.837Z,9.77
2022-10-04T09:18:19.459Z,8.37
2022-10-04T09:21:05.033Z,13.60
2022-10-04T09:23:31.676Z,7.13
2022-10-04T09:26:07.212Z,8.37
2022-10-04T09:29:05.421Z,8.27
2022-10-04T09:31:44.330Z,9.57
2022-10-04T09:34:23.316Z,10.40
2022-10-04T09:37:02.574Z,10.43
2022-10-04T09:39:38.589Z,10.07
2022-10-04T09:42:27.765Z,7.83
2022-10-04T09:45:13.035Z,9.17
2022-10-04T09:47:46.440Z,8.23
2022-10-04T09:50:19.061Z,7.97
2022-10-04T09:53:10.420Z,8.00
2022-10-04T09:55:52.554Z,6.97
2022-10-04T09:58:43.255Z,7.50
2022-10-04T10:01:29.541Z,7.50
2022-10-04T10:04:10.271Z,6.57
2022-10-04T10:06:49.273Z,6.83
2022-10-04T10:09:43.450Z,10.37
2022-10-04T10:12:40.628Z,6.33
2022-10-04T10:16:14.888Z,7.87
2022-10-04T10:19:13.026Z,10.70
2022-10-04T10:22:07.151Z,8.33
2022-10-04T10:24:58.414Z,5.10
2022-10-04T10:27:37.514Z,9.17
2022-10-04T10:30:10.128Z,9.57
2022-10-04T10:32:55.714Z,6.17
2022-10-04T10:35:38.065Z,8.27
2022-10-04T10:38:48.228Z,7.63
2022-10-04T10:41:39.335Z,5.67
2022-10-04T10:44:26.805Z,10.70
2022-10-04T10:47:13.922Z,7.17
2022-10-04T10:50:07.474Z,6.80
2022-10-04T10:52:46.048Z,6.33
2022-10-04T10:55:57.407Z,10.53
2022-10-04T10:59:06.102Z,10.27
2022-10-04T11:02:04.897Z,8.00
2022-10-04T11:04:54.698Z,6.57
2022-10-04T11:07:24.387Z,8.23
2022-10-04T11:10:15.844Z,6.83
2022-10-04T11:13:21.420Z,6.50
2022-10-04T11:16:22.323Z,10.20
2022-10-04T11:18:57.887Z,8.17
2022-10-04T11:21:41.803Z,5.50
2022-10-04T11:24:20.453Z,6.27
2022-10-04T11:27:28.754Z,6.50
2022-10-04T11:30:25.282Z,6.97
2022-10-04T11:33:17.284Z,8.60
2022-10-04T11:36:08.270Z,6.00
2022-10-04T11:39:21.667Z,10.23
2022-10-04T11:42:22.526Z,5.57
2022-10-04T11:44:49.316Z,8.17
2022-10-04T11:47:41.285Z,6.17
2022-10-04T11:50:35.216Z,7.60
2022-10-04T11:53:32.354Z,5.23
2022-10-04T11:56:07.609Z,6.10
2022-10-04T11:58:52.800Z,4.33
2022-10-04T12:01:51.936Z,5.90
2022-10-04T12:04:39.339Z,6.67
2022-10-04T12:07:50.738Z,4.20
2022-10-04T12:10:34.558Z,7.07
2022-10-04T12:13:27.658Z,6.43
2022-10-04T12:16:15.617Z,4.23
2022-10-04T12:19:01.074Z,4.47
2022-10-04T12:21:57.289Z,6.60
2022-10-04T12:24:47.610Z,4.67
2022-10-04T12:27:45.463Z,6.00
2022-10-04T12:30:24.219Z,5.93
2022-10-04T12:33:17.989Z,8.30
2022-10-04T12:36:00.455Z,4.43
2022-10-04T12:38:47.987Z,5.50
2022-10-04T12:41:34.312Z,4.67
2022-10-04T12:44:22.362Z,6.27
2022-10-04T12:47:13.353Z,4.73
2022-10-04T12:49:48.938Z,5.40
2022-10-04T12:52:25.370Z,6.37
2022-10-04T12:55:15.131Z,4.83
2022-10-04T12:57:49.471Z,4.77
2022-10-04T13:00:25.982Z,4.40
2022-10-04T13:03:07.786Z,6.10
2022-10-04T13:05:46.542Z,3.93
2022-10-04T13:09:07.418Z,3.70
2022-10-04T13:11:51.236Z,5.20
2022-10-04T13:14:26.584Z,6.17
2022-10-04T13:20:00.946Z,6.07
2022-10-04T13:23:02.809Z,7.20
2022-10-04T13:25:47.256Z,4.37
2022-10-04T13:28:43.125Z,2.57
2022-10-04T13:31:33.216Z,5.23
2022-10-04T13:34:20.253Z,4.50
2022-10-04T13:36:54.191Z,6.50
2022-10-04T13:39:52.011Z,4.40
2022-10-04T13:42:28.354Z,4.13
2022-10-04T13:45:05.949Z,5.80
2022-10-04T13:47:41.640Z,3.97
2022-10-04T13:50:44.727Z,4.17
2022-10-04T13:53:48.691Z,5.73
2022-10-04T13:56:57.290Z,7.50
2022-10-04T13:59:43.978Z,5.97
2022-10-04T14:02:35.246Z,4.17
2022-10-04T14:05:20.598Z,7.30
2022-10-04T14:08:09.213Z,7.57
2022-10-04T14:10:44.886Z,5.50
2022-10-04T14:13:34.249Z,4.93
2022-10-04T14:16:23.503Z,4.57
2022-10-04T14:19:37.751Z,5.40
2022-10-04T14:22:41.487Z,3.83
2022-10-04T14:25:27.162Z,5.23
2022-10-04T14:28:14.296Z,8.47
2022-10-04T14:31:09.066Z,4.13
2022-10-04T14:34:15.823Z,5.50
2022-10-04T14:36:48.652Z,6.37
2022-10-04T14:39:36.376Z,3.27
2022-10-04T14:42:39.687Z,3.10
2022-10-04T14:45:16.664Z,4.37
2022-10-04T14:48:38.149Z,3.27
2022-10-04T14:51:32.314Z,7.30
2022-10-04T14:54:31.201Z,5.93
2022-10-04T14:57:35.419Z,7.50
2022-10-04T15:00:17.930Z,6.07
2022-10-04T15:03:05.228Z,3.90
2022-10-04T15:06:06.771Z,6.30
2022-10-04T15:08:51.567Z,3.30
2022-10-04T15:11:34.608Z,4.37
2022-10-04T15:14:26.865Z,4.20
2022-10-04T15:17:01.155Z,3.23
2022-10-04T15:19:44.308Z,3.60
2022-10-04T15:22:29.698Z,3.93
2022-10-04T15:24:56.840Z,2.97
2022-10-04T15:27:35.658Z,4.27
2022-10-04T15:30:02.837Z,4.53
2022-10-04T15:32:45.143Z,4.23
2022-10-04T15:35:25.781Z,3.57
2022-10-04T15:37:57.466Z,5.43
2022-10-04T15:40:58.389Z,4.13
2022-10-04T15:43:27.928Z,3.33
2022-10-04T15:46:27.269Z,4.20
2022-10-04T15:49:15.634Z,4.80
2022-10-04T15:51:58.089Z,4.87
2022-10-04T15:54:52.029Z,3.97
2022-10-04T15:57:41.978Z,4.67
2022-10-04T16:00:13.887Z,5.50
2022-10-04T16:02:49.306Z,5.80
2022-10-04T16:05:32.504Z,5.13
2022-10-04T16:08:02.219Z,3.60
2022-10-04T16:11:05.346Z,4.77
2022-10-04T16:13:39.962Z,4.40
2022-10-04T16:16:15.920Z,3.77
2022-10-04T16:18:45.723Z,5.97
2022-10-04T16:21:47.894Z,4.70
2022-10-04T16:24:20.624Z,3.60
2022-10-04T16:26:47.773Z,3.63
2022-10-04T16:29:33.685Z,7.53
2022-10-04T16:32:15.953Z,3.77
2022-10-04T16:35:03.273Z,4.47
2022-10-04T16:37:41.992Z,6.63
2022-10-04T16:40:32.431Z,3.37
2022-10-04T16:43:16.173Z,4.37
2022-10-04T16:46:23.115Z,4.03
2022-10-04T16:48:49.936Z,5.17
2022-10-04T16:51:16.660Z,5.20
2022-10-04T16:54:00.525Z,4.73
2022-10-04T16:56:30.042Z,6.20
2022-10-04T16:59:05.205Z,4.20
2022-10-04T17:01:40.916Z,2.47
2022-10-04T17:04:22.332Z,6.10
2022-10-04T17:07:09.902Z,6.47
2022-10-04T17:10:14.990Z,5.27
2022-10-04T17:12:59.710Z,4.43
2022-10-04T17:16:00.485Z,5.47
2022-10-04T17:18:27.249Z,3.63
2022-10-04T17:21:05.978Z,5.67
2022-10-04T17:24:11.288Z,5.87
2022-10-04T17:26:56.240Z,4.45
2022-10-04T17:29:57.401Z,6.07
2022-10-04T17:32:33.893Z,6.27
2022-10-04T17:35:16.597Z,5.13
2022-10-04T17:38:12.497Z,3.83
2022-10-04T17:40:51.853Z,5.20
2022-10-04T17:43:44.661Z,5.97
2022-10-04T17:46:29.369Z,11.63
2022-10-04T17:49:23.016Z,6.83
2022-10-04T17:52:11.598Z,6.27
2022-10-04T17:54:56.961Z,7.37
2022-10-04T17:57:38.088Z,4.60
2022-10-04T18:00:13.678Z,5.53
2022-10-04T18:03:15.127Z,6.37
2022-10-04T18:05:41.920Z,5.00
2022-10-04T18:08:13.337Z,4.07
2022-10-04T18:10:54.148Z,4.27
2022-10-04T18:13:39.362Z,6.20
2022-10-04T18:16:30.430Z,5.83
2022-10-04T18:19:02.633Z,5.57
2022-10-04T18:21:31.497Z,6.17
2022-10-04T18:24:16.658Z,5.97
2022-10-04T18:27:15.432Z,7.60
2022-10-04T18:29:44.465Z,5.83
2022-10-04T18:32:26.955Z,4.97
2022-10-04T18:34:59.027Z,5.17
2022-10-04T18:37:32.662Z,5.50
2022-10-04T18:40:25.811Z,4.70
2022-10-04T18:42:57.900Z,5.33
2022-10-04T18:45:33.763Z,7.63
2022-10-04T18:48:02.634Z,6.30
2022-10-04T18:50:37.747Z,5.83
2022-10-04T18:53:22.845Z,4.93
2022-10-04T18:55:58.718Z,7.20
2022-10-04T18:59:08.053Z,5.90
2022-10-04T19:02:03.797Z,5.50
2022-10-04T19:04:59.732Z,6.83
2022-10-04T19:07:56.061Z,5.97
2022-10-04T19:10:47.135Z,3.93
2022-10-04T19:13:16.681Z,8.00
2022-10-04T19:16:13.559Z,4.53
2022-10-04T19:19:01.866Z,6.00
2022-10-04T19:21:55.189Z,5.43
2022-10-04T19:24:39.536Z,5.53
2022-10-04T19:27:31.826Z,5.30
2022-10-04T19:30:15.466Z,4.90
2022-10-04T19:32:55.543Z,5.73
2022-10-04T19:35:35.040Z,5.97
2022-10-04T19:38:12.420Z,8.93
2022-10-04T19:40:48.655Z,4.87
2022-10-04T19:43:42.245Z,5.63
2022-10-04T19:46:32.259Z,5.37
2022-10-04T19:48:59.259Z,7.80
2022-10-04T19:51:34.360Z,3.93
2022-10-04T19:54:17.318Z,9.27
2022-10-04T19:56:55.390Z,9.83
2022-10-04T19:59:35.799Z,7.07
2022-10-04T20:02:02.590Z,5.23
2022-10-04T20:04:35.472Z,6.47
2022-10-04T20:07:24.873Z,6.47
2022-10-04T20:10:16.278Z,5.23
2022-10-04T20:13:03.958Z,5.47
2022-10-04T20:15:34.796Z,6.03
2022-10-04T20:18:03.059Z,6.13
2022-10-04T20:20:38.961Z,6.27
2022-10-04T20:23:07.747Z,6.40
2022-10-04T20:25:49.607Z,8.57
2022-10-04T20:28:43.324Z,5.93
2022-10-04T20:31:31.210Z,6.57
2022-10-04T20:34:32.155Z,8.70
2022-10-04T20:36:59.107Z,6.87
2022-10-04T20:39:41.127Z,6.50
2022-10-04T20:42:25.137Z,6.30
2022-10-04T20:45:10.142Z,7.93
2022-10-04T20:47:57.877Z,6.27
2022-10-04T20:50:34.833Z,6.67
2022-10-04T20:53:06.719Z,4.97
2022-10-04T20:55:36.981Z,5.73
2022-10-04T20:58:21.008Z,7.23
2022-10-04T21:00:55.745Z,6.73
2022-10-04T21:03:23.317Z,7.93
2022-10-04T21:06:08.587Z,7.33
2022-10-04T21:08:36.734Z,4.47
2022-10-04T21:11:06.321Z,8.33
2022-10-04T21:13:57.410Z,6.87
2022-10-04T21:16:56.538Z,5.93
2022-10-04T21:19:33.131Z,7.30
2022-10-04T21:22:04.592Z,6.23
2022-10-04T21:24:41.236Z,6.57
2022-10-04T21:27:10.792Z,8.50
2022-10-04T21:29:39.027Z,6.07
2022-10-04T21:32:06.345Z,5.17
2022-10-04T21:34:53.547Z,6.47
2022-10-04T21:37:20.604Z,8.13
2022-10-04T21:39:47.347Z,7.07
2022-10-04T21:42:14.198Z,5.33
2022-10-04T21:44:40.904Z,5.77
2022-10-04T21:47:07.652Z,5.03
2022-10-04T21:49:34.440Z,7.23
2022-10-04T21:52:01.221Z,8.57
2022-10-04T21:54:27.977Z,4.57
2022-10-04T21:56:54.730Z,6.67
2022-10-04T21:59:21.832Z,9.00
2022-10-04T22:01:48.725Z,10.10
2022-10-04T22:04:15.795Z,5.50
2022-10-04T22:06:43.182Z,5.40
2022-10-04T22:09:10.443Z,5.93
2022-10-04T22:11:37.555Z,5.40
2022-10-04T22:14:04.345Z,5.80
2022-10-04T22:16:31.259Z,6.03
2022-10-04T22:18:58.119Z,4.73
2022-10-04T22:21:24.984Z,5.67
2022-10-04T22:23:51.812Z,6.70
2022-10-04T22:26:20.804Z,6.17
2022-10-04T22:28:53.383Z,6.50
2022-10-04T22:31:29.135Z,5.20
2022-10-04T22:33:56.946Z,6.73
2022-10-04T22:36:34.923Z,5.50
2022-10-04T22:39:13.523Z,11.47
2022-10-04T22:41:48.439Z,7.57
2022-10-04T22:44:50.816Z,4.43
2022-10-04T22:47:17.696Z,4.70
2022-10-04T22:49:46.616Z,7.30
2022-10-04T22:52:22.036Z,8.50
2022-10-04T22:54:53.861Z,5.50
2022-10-04T22:57:20.948Z,6.07
2022-10-04T22:59:51.279Z,6.17
2022-10-04T23:02:29.195Z,6.67
2022-10-04T23:05:01.669Z,10.27
2022-10-04T23:07:28.529Z,8.23
2022-10-04T23:09:55.262Z,6.23
2022-10-04T23:12:21.976Z,6.43
2022-10-04T23:14:48.668Z,6.37
2022-10-04T23:17:35.464Z,7.77
2022-10-04T23:20:13.405Z,4.87
2022-10-04T23:22:42.795Z,6.03
2022-10-04T23:25:15.642Z,6.80
2022-10-04T23:27:43.204Z,5.50
2022-10-04T23:30:18.275Z,7.47
2022-10-04T23:32:46.950Z,4.93
2022-10-04T23:35:20.452Z,6.93
2022-10-04T23:37:48.620Z,6.60
2022-10-04T23:40:20.963Z,7.00
2022-10-04T23:42:50.740Z,7.07
2022-10-04T23:45:25.048Z,4.43
2022-10-04T23:47:55.371Z,5.63
2022-10-04T23:50:34.333Z,6.20
2022-10-04T23:53:04.652Z,7.43
2022-10-04T23:55:41.378Z,6.37
2022-10-04T23:58:17.020Z,5.87
